Time;durP1;ratioP1;P1;durP2;ratioP2;P2;SDS_P1;SDS_P2;PMS_P1;PMS_P2;Temp;Humidity;BMP_temperature;BMP_pressure;BME280_temperature;BME280_humidity;BME280_pressure;Samples;Min_cycle;Max_cycle;Signal;HPM_P1;HPM_P2
2021/01/08 00:02:23;;;;;;;36.22;18.15;;;-1.50;92.60;;;;;;5087597;28;19936;-66
2021/01/08 00:04:49;;;;;;;;;;;-1.50;92.70;;;;;;5087838;28;20484;-66
2021/01/08 00:07:15;;;;;;;43.88;21.05;;;-1.50;92.70;;;;;;5086861;28;19914;-67
2021/01/08 00:09:40;;;;;;;;;;;-1.50;92.80;;;;;;5069699;28;20032;-66
2021/01/08 00:12:07;;;;;;;36.25;18.15;;;-1.50;92.70;;;;;;5087493;28;19908;-67
2021/01/08 00:14:33;;;;;;;22.83;12.18;;;-1.50;92.70;;;;;;5086350;28;20043;-67
2021/01/08 00:16:58;;;;;;;24.77;14.13;;;-1.60;92.50;;;;;;5087496;28;20028;-66
2021/01/08 00:19:24;;;;;;;;;;;-1.60;92.50;;;;;;5068647;28;20404;-65
2021/01/08 00:21:50;;;;;;;45.30;24.48;;;-1.50;92.40;;;;;;5086810;28;19915;-67
2021/01/08 00:24:16;;;;;;;;;;;-1.60;92.40;;;;;;5087170;28;20066;-67
2021/01/08 00:26:42;;;;;;;35.42;19.52;;;-1.60;92.40;;;;;;5086888;28;19927;-67
2021/01/08 00:29:11;;;;;;;38.97;18.92;;;-1.60;92.40;;;;;;5086642;28;20115;-66
2021/01/08 00:31:44;;;;;;;28.50;15.85;;;-1.60;92.60;;;;;;5086694;28;20024;-66
2021/01/08 00:34:13;;;;;;;27.85;15.38;;;-1.70;92.70;;;;;;5086760;28;20028;-66
2021/01/08 00:36:53;;;;;;;29.02;13.48;;;-1.70;92.70;;;;;;5086986;28;20040;-66
2021/01/08 00:39:20;;;;;;;28.20;13.50;;;-1.70;92.80;;;;;;5086793;28;20563;-67
2021/01/08 00:41:47;;;;;;;27.83;15.05;;;-1.70;92.90;;;;;;5086291;28;20066;-67
2021/01/08 00:44:13;;;;;;;29.55;15.68;;;-1.70;92.90;;;;;;5086489;28;20028;-67
2021/01/08 00:46:41;;;;;;;34.00;16.27;;;-1.70;92.80;;;;;;5086886;28;20111;-67
2021/01/08 00:49:07;;;;;;;30.73;15.73;;;-1.70;92.70;;;;;;5086443;28;20038;-66
2021/01/08 00:51:34;;;;;;;24.75;12.73;;;-1.70;92.70;;;;;;5086603;28;20024;-66
2021/01/08 00:54:00;;;;;;;17.77;10.57;;;-1.70;92.60;;;;;;5086757;28;20028;-66
2021/01/08 00:56:26;;;;;;;18.70;10.13;;;-1.60;92.60;;;;;;5086313;28;20032;-67
2021/01/08 00:58:52;;;;;;;20.25;10.57;;;-1.60;92.50;;;;;;5086264;28;20032;-67
2021/01/08 01:01:18;;;;;;;;;;;-1.50;92.50;;;;;;5086630;28;20036;-67
2021/01/08 01:03:44;;;;;;;18.80;9.93;;;-1.60;92.50;;;;;;5086583;28;20395;-66
2021/01/08 01:06:09;;;;;;;37.45;17.35;;;-1.60;92.50;;;;;;5068475;28;20436;-67
2021/01/08 01:08:35;;;;;;;34.20;15.77;;;-1.60;92.60;;;;;;5085855;28;20032;-67
2021/01/08 01:11:01;;;;;;;;;;;-1.60;92.70;;;;;;5086604;28;20373;-67
2021/01/08 01:13:27;;;;;;;28.45;13.20;;;-1.60;92.70;;;;;;5086122;28;19908;-67
2021/01/08 01:15:53;;;;;;;29.60;12.85;;;-1.60;92.80;;;;;;5086194;28;20677;-67
2021/01/08 01:18:19;;;;;;;52.17;24.25;;;-1.50;92.80;;;;;;5086047;28;20748;-67
2021/01/08 01:20:45;;;;;;;40.35;20.50;;;-1.40;92.80;;;;;;5068455;28;20043;-67
2021/01/08 01:23:11;;;;;;;;;;;-1.40;92.80;;;;;;5086493;28;20024;-67
2021/01/08 01:25:36;;;;;;;38.17;18.45;;;-1.30;92.50;;;;;;5086307;28;19915;-66
2021/01/08 01:28:02;;;;;;;34.25;16.67;;;-1.20;92.20;;;;;;5067606;28;20052;-67
2021/01/08 01:30:29;;;;;;;25.88;12.43;;;-1.10;91.90;;;;;;5067506;28;20504;-66
2021/01/08 01:32:54;;;;;;;20.70;10.65;;;-1.00;91.70;;;;;;5086396;28;20063;-67
2021/01/08 01:35:20;;;;;;;;;;;-0.90;91.60;;;;;;5068213;28;20064;-66
2021/01/08 01:37:45;;;;;;;27.67;11.88;;;-0.80;91.40;;;;;;5086286;28;19972;-66
2021/01/08 01:40:11;;;;;;;;;;;-0.80;91.40;;;;;;5086306;28;20111;-65
2021/01/08 01:42:37;;;;;;;10.32;5.82;;;-0.70;90.90;;;;;;5086130;28;20107;-66
2021/01/08 01:45:03;;;;;;;;;;;-0.50;89.50;;;;;;5085358;28;20114;-66
2021/01/08 01:47:28;;;;;;;7.47;4.03;;;-0.30;87.10;;;;;;5085823;28;19907;-66
2021/01/08 01:49:54;;;;;;;;;;;-0.20;86.10;;;;;;5086109;28;20031;-66
2021/01/08 01:52:20;;;;;;;7.07;3.80;;;-0.10;85.50;;;;;;5086680;28;19915;-66
2021/01/08 01:54:46;;;;;;;9.30;3.53;;;-0.10;85.60;;;;;;5090371;28;20051;-66
2021/01/08 01:57:11;;;;;;;;;;;0.00;85.70;;;;;;5071813;28;20024;-66
2021/01/08 01:59:37;;;;;;;6.60;3.33;;;0.10;85.90;;;;;;5089545;28;19915;-66
2021/01/08 02:02:07;;;;;;;;;;;0.10;85.90;;;;;;5090377;28;20553;-64
2021/01/08 02:04:34;;;;;;;4.68;2.60;;;0.20;84.90;;;;;;5071344;28;19953;-65
2021/01/08 02:07:01;;;;;;;4.45;2.67;;;0.20;84.10;;;;;;5089617;28;20503;-66
2021/01/08 02:09:27;;;;;;;3.80;2.10;;;0.20;83.80;;;;;;5070974;28;20489;-66
2021/01/08 02:11:55;;;;;;;3.78;2.17;;;0.30;83.40;;;;;;5089524;28;20025;-66
2021/01/08 02:14:28;;;;;;;3.55;2.13;;;0.30;83.10;;;;;;5088972;28;20028;-67
2021/01/08 02:16:57;;;;;;;8.00;4.20;;;0.30;84.00;;;;;;5089734;28;20024;-67
2021/01/08 02:19:28;;;;;;;6.65;3.78;;;0.30;84.60;;;;;;5088874;28;20036;-66
2021/01/08 02:22:08;;;;;;;8.00;4.05;;;0.30;84.60;;;;;;5071328;28;20036;-66
2021/01/08 02:24:38;;;;;;;5.93;3.38;;;0.30;84.60;;;;;;5071184;28;20135;-67
2021/01/08 02:27:04;;;;;;;8.45;3.88;;;0.40;84.30;;;;;;5088887;28;20133;-66
2021/01/08 02:29:30;;;;;;;;;;;0.40;84.50;;;;;;5089244;28;20032;-66
2021/01/08 02:31:56;;;;;;;11.02;4.63;;;0.40;85.40;;;;;;5089300;28;19908;-67
2021/01/08 02:34:23;;;;;;;13.40;6.57;;;0.30;86.20;;;;;;5089097;28;20060;-67
2021/01/08 02:36:49;;;;;;;12.18;5.90;;;0.30;86.70;;;;;;5089176;28;20416;-66
2021/01/08 02:39:15;;;;;;;;;;;0.30;87.00;;;;;;5089337;28;20034;-66
2021/01/08 02:41:43;;;;;;;8.35;4.53;;;0.30;87.10;;;;;;5089162;28;19908;-66
2021/01/08 02:44:12;;;;;;;7.35;4.25;;;0.30;86.90;;;;;;5069850;28;20522;-66
2021/01/08 02:46:38;;;;;;;8.32;4.53;;;0.30;87.00;;;;;;5089016;28;20106;-66
2021/01/08 02:49:03;;;;;;;10.25;5.28;;;0.30;87.90;;;;;;5088677;28;20532;-66
2021/01/08 02:51:29;;;;;;;;;;;0.20;88.20;;;;;;5088918;28;20095;-66
2021/01/08 02:53:57;;;;;;;8.80;4.68;;;0.20;88.50;;;;;;5070953;28;19904;-67
2021/01/08 02:56:28;;;;;;;9.35;4.82;;;0.20;88.80;;;;;;5088686;28;20040;-67
2021/01/08 02:58:55;;;;;;;7.85;5.15;;;0.20;89.40;;;;;;5088435;28;20020;-64
2021/01/08 03:01:23;;;;;;;12.80;7.03;;;0.20;89.50;;;;;;5088677;28;20484;-65
2021/01/08 03:03:48;;;;;;;9.38;5.07;;;0.10;89.60;;;;;;5088367;28;20042;-65
2021/01/08 03:06:15;;;;;;;;;;;0.10;89.70;;;;;;5089214;28;20028;-66
2021/01/08 03:08:42;;;;;;;11.82;5.85;;;0.10;89.90;;;;;;5088308;28;19908;-67
2021/01/08 03:11:09;;;;;;;9.63;5.68;;;0.10;89.40;;;;;;5088605;28;20027;-67
2021/01/08 03:13:40;;;;;;;7.93;5.25;;;0.10;89.70;;;;;;5088076;28;20032;-66
2021/01/08 03:16:07;;;;;;;10.88;5.20;;;0.10;90.00;;;;;;5088064;28;20479;-67
2021/01/08 03:18:32;;;;;;;12.15;5.60;;;0.10;89.90;;;;;;5088400;28;20488;-67
2021/01/08 03:20:58;;;;;;;;;;;0.20;89.40;;;;;;5088474;28;20038;-66
2021/01/08 03:23:23;;;;;;;9.48;5.30;;;0.20;89.00;;;;;;5069964;28;19988;-67
2021/01/08 03:25:49;;;;;;;;;;;0.20;89.20;;;;;;5088690;28;20085;-67
2021/01/08 03:28:17;;;;;;;7.68;5.03;;;0.10;89.30;;;;;;5087150;28;19916;-66
2021/01/08 03:30:43;;;;;;;9.43;5.68;;;0.10;89.30;;;;;;5087873;28;20077;-66
2021/01/08 03:33:08;;;;;;;;;;;0.10;89.80;;;;;;5070383;28;20044;-66
2021/01/08 03:35:34;;;;;;;9.43;5.45;;;0.10;90.10;;;;;;5087601;28;19929;-66
2021/01/08 03:37:59;;;;;;;;;;;0.10;90.20;;;;;;5088392;28;20028;-66
2021/01/08 03:40:25;;;;;;;17.15;9.35;;;0.10;90.30;;;;;;5088230;28;19908;-66
2021/01/08 03:42:50;;;;;;;;;;;0.10;90.30;;;;;;5087654;28;20515;-66
2021/01/08 03:45:16;;;;;;;15.20;7.30;;;0.10;90.30;;;;;;5086503;28;20000;-66
2021/01/08 03:47:42;;;;;;;;;;;0.10;90.40;;;;;;5069579;28;20036;-66
2021/01/08 03:50:08;;;;;;;18.90;9.25;;;0.10;90.30;;;;;;5087904;28;20287;-66
2021/01/08 03:52:34;;;;;;;16.08;8.93;;;0.10;90.10;;;;;;5087706;28;20056;-65
2021/01/08 03:54:59;;;;;;;;;;;0.10;89.90;;;;;;5086964;28;20823;-66
2021/01/08 03:57:25;;;;;;;16.38;8.77;;;0.20;90.10;;;;;;5086933;28;19954;-66
2021/01/08 03:59:50;;;;;;;;;;;0.20;90.20;;;;;;5069832;28;20544;-65
2021/01/08 04:02:16;;;;;;;13.88;7.97;;;0.20;90.50;;;;;;5069425;28;19908;-65
2021/01/08 04:04:41;;;;;;;;;;;0.10;90.60;;;;;;5087519;28;20028;-66
2021/01/08 04:07:07;;;;;;;12.95;7.30;;;0.10;90.80;;;;;;5087541;28;20225;-65
2021/01/08 04:09:32;;;;;;;;;;;0.10;90.80;;;;;;5087801;28;20024;-66
2021/01/08 04:11:58;;;;;;;17.13;8.60;;;0.10;90.80;;;;;;5086498;28;19939;-66
2021/01/08 04:14:23;;;;;;;;;;;0.20;90.70;;;;;;5087759;28;20032;-67
2021/01/08 04:16:49;;;;;;;10.88;6.20;;;0.20;90.70;;;;;;5086907;28;19912;-66
2021/01/08 04:19:15;;;;;;;;;;;0.20;90.40;;;;;;5087256;28;20031;-66
2021/01/08 04:21:40;;;;;;;10.35;5.00;;;0.20;90.30;;;;;;5068699;28;19965;-66
2021/01/08 04:24:06;;;;;;;;;;;0.20;90.40;;;;;;5087473;28;20089;-65
2021/01/08 04:26:32;;;;;;;11.00;6.15;;;0.20;90.50;;;;;;5086088;28;19951;-66
2021/01/08 04:28:57;;;;;;;;;;;0.20;90.50;;;;;;5087687;28;20111;-66
2021/01/08 04:31:24;;;;;;;10.35;4.90;;;0.20;90.50;;;;;;5087036;28;20299;-66
2021/01/08 04:33:49;;;;;;;8.68;4.70;;;0.10;90.50;;;;;;5086779;28;20504;-67
2021/01/08 04:36:15;;;;;;;;;;;0.20;90.50;;;;;;5069330;28;20038;-67
2021/01/08 04:38:41;;;;;;;15.38;8.45;;;0.20;90.60;;;;;;5086540;28;19914;-66
2021/01/08 04:41:07;;;;;;;;;;;0.20;90.60;;;;;;5087097;28;20237;-66
2021/01/08 04:43:34;;;;;;;36.63;20.50;;;0.20;90.60;;;;;;5086270;28;19908;-66
2021/01/08 04:46:19;;;;;;;37.05;16.95;;;0.20;90.60;;;;;;5087053;28;20526;-66
2021/01/08 04:48:46;;;;;;;25.67;12.88;;;0.30;90.50;;;;;;5068861;28;20047;-67
2021/01/08 04:51:13;;;;;;;26.20;13.85;;;0.30;90.50;;;;;;5086971;28;20115;-66
2021/01/08 04:53:39;;;;;;;46.85;23.45;;;0.30;90.40;;;;;;5086440;28;20269;-66
2021/01/08 04:56:07;;;;;;;;;;;0.30;90.50;;;;;;5086139;28;20492;-66
2021/01/08 04:58:33;;;;;;;25.77;13.57;;;0.30;90.40;;;;;;5086162;28;20463;-67
2021/01/08 05:00:59;;;;;;;;;;;0.30;90.10;;;;;;5068976;28;20032;-66
2021/01/08 05:03:25;;;;;;;32.38;16.20;;;0.30;90.10;;;;;;5086336;28;19919;-66
2021/01/08 05:05:50;;;;;;;;;;;0.30;90.10;;;;;;5086535;28;20400;-67
2021/01/08 05:08:16;;;;;;;75.93;31.25;;;0.40;89.80;;;;;;5086400;28;19968;-66
2021/01/08 05:10:41;;;;;;;;;;;0.40;89.50;;;;;;5086430;28;20020;-68
2021/01/08 05:13:07;;;;;;;57.88;26.83;;;0.40;89.20;;;;;;5086042;28;19915;-66
2021/01/08 05:15:33;;;;;;;;;;;0.40;88.90;;;;;;5068169;28;20040;-67
2021/01/08 05:17:58;;;;;;;41.10;19.35;;;0.40;89.20;;;;;;5086514;28;19919;-67
2021/01/08 05:20:24;;;;;;;;;;;0.40;89.40;;;;;;5086830;28;20039;-66
2021/01/08 05:22:51;;;;;;;29.27;14.82;;;0.40;88.90;;;;;;5067975;28;19915;-66
2021/01/08 05:25:16;;;;;;;18.00;9.40;;;0.40;88.70;;;;;;5086295;28;20069;-64
2021/01/08 05:27:42;;;;;;;;;;;0.50;88.30;;;;;;5088803;28;20424;-66
2021/01/08 05:30:12;;;;;;;43.95;18.55;;;0.40;88.50;;;;;;5090699;28;19912;-66
2021/01/08 05:32:38;;;;;;;134.95;43.72;;;0.40;89.20;;;;;;5090345;28;20031;-66
2021/01/08 05:35:04;;;;;;;;;;;0.40;89.80;;;;;;5090614;28;20044;-67
2021/01/08 05:37:30;;;;;;;86.88;39.80;;;0.40;90.10;;;;;;5090062;28;20379;-65
2021/01/08 05:40:04;;;;;;;76.03;37.53;;;0.40;90.00;;;;;;5090381;28;20024;-66
2021/01/08 05:42:30;;;;;;;72.07;32.75;;;0.40;89.50;;;;;;5089836;28;20506;-65
2021/01/08 05:44:56;;;;;;;65.57;32.45;;;0.40;89.30;;;;;;5089919;28;20020;-66
2021/01/08 05:47:21;;;;;;;;;;;0.40;89.30;;;;;;5089993;28;20036;-66
2021/01/08 05:49:47;;;;;;;94.43;43.85;;;0.40;89.30;;;;;;5090099;28;19908;-66
2021/01/08 05:52:14;;;;;;;;;;;0.40;89.70;;;;;;5090215;28;20435;-66
2021/01/08 05:54:40;;;;;;;87.10;37.30;;;0.40;89.90;;;;;;5089562;28;19912;-66
2021/01/08 05:57:06;;;;;;;;;;;0.40;89.30;;;;;;5090060;28;20051;-67
2021/01/08 05:59:31;;;;;;;80.18;36.05;;;0.50;88.70;;;;;;5089539;28;19904;-66
2021/01/08 06:01:58;;;;;;;;;;;0.40;89.10;;;;;;5072153;28;20064;-66
2021/01/08 06:04:29;;;;;;;66.88;31.00;;;0.50;89.50;;;;;;5089958;28;20525;-66
2021/01/08 06:06:55;;;;;;;67.82;28.13;;;0.40;89.60;;;;;;5089930;28;20031;-66
2021/01/08 06:09:21;;;;;;;;;;;0.40;89.90;;;;;;5089712;28;20024;-66
2021/01/08 06:11:46;;;;;;;56.15;25.00;;;0.40;90.10;;;;;;5089377;28;19911;-66
2021/01/08 06:14:13;;;;;;;;;;;0.40;90.20;;;;;;5090174;28;20078;-66
2021/01/08 06:16:43;;;;;;;40.75;19.52;;;0.40;90.10;;;;;;5089673;28;19912;-66
2021/01/08 06:19:09;;;;;;;47.42;22.10;;;0.40;90.10;;;;;;5071410;28;20024;-65
2021/01/08 06:21:43;;;;;;;59.13;28.15;;;0.40;90.00;;;;;;5089513;28;20040;-65
2021/01/08 06:24:13;;;;;;;59.75;30.02;;;0.40;90.30;;;;;;5089403;28;20056;-66
2021/01/08 06:26:40;;;;;;;56.97;28.08;;;0.40;90.00;;;;;;5088646;28;20046;-66
2021/01/08 06:29:19;;;;;;;61.30;30.25;;;0.40;90.00;;;;;;5089036;28;20024;-66
2021/01/08 06:31:52;;;;;;;68.78;32.15;;;0.50;89.90;;;;;;5089469;28;20598;-65
2021/01/08 06:34:27;;;;;;;59.78;29.23;;;0.50;90.10;;;;;;5088917;28;20028;-66
2021/01/08 06:37:06;;;;;;;49.63;24.50;;;0.50;90.20;;;;;;5089214;28;20426;-66
2021/01/08 06:39:44;;;;;;;59.80;29.10;;;0.50;90.30;;;;;;5088361;28;20080;-66
2021/01/08 06:42:10;;;;;;;60.17;27.95;;;0.50;90.30;;;;;;5088150;28;20400;-64
2021/01/08 06:44:36;;;;;;;70.60;32.20;;;0.50;90.40;;;;;;5070916;28;20047;-66
2021/01/08 06:47:03;;;;;;;;;;;0.50;90.50;;;;;;5089345;28;20054;-66
2021/01/08 06:49:31;;;;;;;73.50;32.75;;;0.50;90.30;;;;;;5088492;28;20086;-65
2021/01/08 06:51:59;;;;;;;96.35;43.83;;;0.50;90.40;;;;;;5087920;28;20113;-67
2021/01/08 06:54:26;;;;;;;115.07;49.58;;;0.50;90.40;;;;;;5087559;28;20069;-68
2021/01/08 06:56:57;;;;;;;95.43;42.15;;;0.60;90.50;;;;;;5087138;28;20393;-68
2021/01/08 06:59:26;;;;;;;79.30;37.55;;;0.60;90.50;;;;;;5087509;28;20020;-69
2021/01/08 07:01:53;;;;;;;82.38;36.75;;;0.60;90.60;;;;;;5069608;28;20119;-68
2021/01/08 07:04:31;;;;;;;78.45;33.80;;;0.60;90.40;;;;;;5069205;28;20020;-67
2021/01/08 07:07:02;;;;;;;63.85;27.65;;;0.60;90.40;;;;;;5087657;28;20028;-64
2021/01/08 07:09:33;;;;;;;40.53;18.55;;;0.60;90.40;;;;;;5069498;28;20027;-67
2021/01/08 07:11:59;;;;;;;33.65;16.42;;;0.60;90.30;;;;;;5068867;28;20035;-67
2021/01/08 07:14:25;;;;;;;29.85;13.82;;;0.60;90.30;;;;;;5088352;28;20032;-67
2021/01/08 07:16:51;;;;;;;;;;;0.60;90.20;;;;;;5088507;28;20097;-67
2021/01/08 07:19:23;;;;;;;15.90;7.68;;;0.60;90.00;;;;;;5088162;28;19908;-67
2021/01/08 07:21:56;;;;;;;16.88;8.27;;;0.70;90.00;;;;;;5088267;28;20093;-69
2021/01/08 07:24:34;;;;;;;55.13;28.08;;;0.70;90.00;;;;;;5088256;28;20024;-71
2021/01/08 07:27:25;;;;;;;131.43;58.55;;;0.70;89.70;;;;;;5069973;28;20473;-66
2021/01/08 07:29:55;;;;;;;104.05;45.72;;;0.80;89.40;;;;;;5070353;28;20101;-66
2021/01/08 07:32:47;;;;;;;81.05;37.63;;;0.80;89.40;;;;;;5087802;28;20028;-66
2021/01/08 07:35:15;;;;;;;74.70;34.53;;;0.80;89.10;;;;;;5087600;28;20032;-66
2021/01/08 07:38:02;;;;;;;72.72;32.67;;;0.80;89.20;;;;;;5088174;28;20020;-66
2021/01/08 07:40:30;;;;;;;70.38;32.38;;;0.90;88.20;;;;;;5069782;28;20115;-66
2021/01/08 07:43:03;;;;;;;69.78;35.00;;;1.00;86.90;;;;;;5088295;28;20082;-66
2021/01/08 07:45:49;;;;;;;64.40;30.60;;;1.00;86.80;;;;;;5087502;28;20040;-67
2021/01/08 07:48:35;;;;;;;50.67;22.70;;;1.10;86.80;;;;;;5087919;28;20511;-67
2021/01/08 07:51:04;;;;;;;44.28;22.05;;;1.00;86.90;;;;;;5086710;28;20099;-67
2021/01/08 07:53:42;;;;;;;31.63;17.50;;;1.00;86.70;;;;;;5087954;28;20063;-66
2021/01/08 07:56:28;;;;;;;19.05;10.00;;;1.00;86.80;;;;;;5087353;28;20028;-67
2021/01/08 07:59:05;;;;;;;21.13;12.45;;;1.10;86.40;;;;;;5087012;28;20028;-66
2021/01/08 08:01:35;;;;;;;29.13;14.15;;;1.10;85.20;;;;;;5087555;28;20793;-66
2021/01/08 08:04:05;;;;;;;28.63;14.55;;;1.20;85.60;;;;;;5087119;28;20137;-66
2021/01/08 08:06:32;;;;;;;49.75;23.42;;;1.20;86.50;;;;;;5087151;28;20592;-65
2021/01/08 08:09:00;;;;;;;105.65;41.83;;;1.30;87.50;;;;;;5086889;28;20047;-67
2021/01/08 08:11:29;;;;;;;183.20;74.63;;;1.30;87.70;;;;;;5085534;28;20032;-65
2021/01/08 08:13:55;;;;;;;141.07;55.88;;;1.30;88.00;;;;;;5086636;28;20032;-65
2021/01/08 08:16:37;;;;;;;;;;;1.30;87.40;;;;;;5086555;28;20075;-65
2021/01/08 08:19:04;;;;;;;152.20;66.07;;;1.30;87.70;;;;;;5086153;28;19923;-65
2021/01/08 08:21:30;;;;;;;168.63;74.88;;;1.40;87.50;;;;;;5084383;28;20104;-65
2021/01/08 08:23:56;;;;;;;;;;;1.40;87.40;;;;;;5085536;28;20040;-65
2021/01/08 08:26:23;;;;;;;165.32;78.35;;;1.50;87.10;;;;;;5085648;28;19920;-64
2021/01/08 08:29:10;;;;;;;157.70;73.25;;;1.50;86.80;;;;;;5085760;28;20059;-66
2021/01/08 08:31:41;;;;;;;149.77;75.53;;;1.50;86.80;;;;;;5086726;28;20274;-65
2021/01/08 08:34:09;;;;;;;149.43;74.78;;;1.60;86.30;;;;;;5086604;28;20036;-66
2021/01/08 08:36:36;;;;;;;123.30;66.82;;;1.60;86.20;;;;;;5086509;28;20111;-65
2021/01/08 08:39:13;;;;;;;114.45;58.45;;;1.70;86.30;;;;;;5086788;28;20024;-66
2021/01/08 08:41:42;;;;;;;111.88;60.13;;;1.70;85.40;;;;;;5087080;28;20550;-65
2021/01/08 08:44:09;;;;;;;118.10;60.53;;;1.80;85.40;;;;;;5086477;28;20020;-66
2021/01/08 08:46:51;;;;;;;171.63;78.80;;;1.90;85.90;;;;;;5086788;28;20043;-65
2021/01/08 08:49:25;;;;;;;139.70;63.00;;;1.90;85.70;;;;;;5086603;28;20455;-66
2021/01/08 08:51:52;;;;;;;130.13;60.67;;;1.90;85.00;;;;;;5067965;28;20377;-66
2021/01/08 08:54:18;;;;;;;119.53;56.97;;;2.10;84.60;;;;;;5067693;28;20053;-65
2021/01/08 08:56:53;;;;;;;81.90;38.42;;;2.20;83.50;;;;;;5086128;28;20028;-65
2021/01/08 08:59:41;;;;;;;48.72;24.25;;;2.40;81.00;;;;;;5086483;28;20161;-66
2021/01/08 09:02:09;;;;;;;21.73;11.60;;;2.60;79.20;;;;;;5068147;28;20393;-67
2021/01/08 09:04:35;;;;;;;30.67;15.95;;;2.70;80.10;;;;;;5086424;28;20043;-66
2021/01/08 09:07:10;;;;;;;;;;;2.70;81.40;;;;;;5086494;28;20653;-66
2021/01/08 09:09:40;;;;;;;20.77;12.60;;;2.60;82.40;;;;;;5086022;28;19943;-66
2021/01/08 09:12:23;;;;;;;23.58;13.93;;;2.60;82.90;;;;;;5068226;28;20028;-66
2021/01/08 09:14:49;;;;;;;16.58;11.85;;;2.50;83.20;;;;;;5086177;28;20452;-66
2021/01/08 09:17:20;;;;;;;12.75;8.55;;;2.60;83.70;;;;;;5085893;28;20032;-66
2021/01/08 09:20:05;;;;;;;32.55;11.43;;;2.70;82.70;;;;;;5086659;28;20486;-65
2021/01/08 09:22:35;;;;;;;24.10;10.32;;;3.00;79.00;;;;;;5067814;28;20028;-66
2021/01/08 09:25:01;;;;;;;18.85;7.60;;;3.10;76.50;;;;;;5086325;28;20131;-66
2021/01/08 09:27:27;;;;;;;;;;;3.30;75.60;;;;;;5085918;28;20055;-66
2021/01/08 09:29:53;;;;;;;20.40;11.35;;;3.30;75.30;;;;;;5086374;28;19962;-67
2021/01/08 09:32:45;;;;;;;;;;;3.40;73.90;;;;;;5086516;28;20056;-66
2021/01/08 09:35:10;;;;;;;25.30;13.73;;;3.50;71.60;;;;;;5082336;28;19981;-67
2021/01/08 09:37:40;;;;;;;;;;;3.50;71.80;;;;;;5086336;28;20028;-66
2021/01/08 09:40:11;;;;;;;12.93;6.95;;;3.60;69.80;;;;;;5085739;28;19912;-66
2021/01/08 09:42:38;;;;;;;16.73;7.38;;;3.50;71.10;;;;;;5067885;28;20024;-66
2021/01/08 09:45:23;;;;;;;46.70;23.17;;;3.40;71.80;;;;;;5067641;28;20131;-66
2021/01/08 09:47:49;;;;;;;22.33;11.20;;;3.40;74.60;;;;;;5068215;28;20138;-67
2021/01/08 09:50:26;;;;;;;17.65;9.52;;;3.30;76.90;;;;;;5085612;28;20028;-67
2021/01/08 09:52:52;;;;;;;;;;;3.20;78.40;;;;;;5086214;28;20721;-67
2021/01/08 09:55:29;;;;;;;19.83;10.70;;;3.20;80.40;;;;;;5085588;28;20272;-66
2021/01/08 09:57:58;;;;;;;39.92;19.95;;;3.10;80.60;;;;;;5085678;28;20127;-66
2021/01/08 10:00:37;;;;;;;56.67;29.17;;;3.20;80.80;;;;;;5086050;28;20024;-67
2021/01/08 10:03:16;;;;;;;69.95;34.10;;;3.30;81.10;;;;;;5085653;28;20488;-66
2021/01/08 10:05:42;;;;;;;54.30;28.35;;;3.30;80.60;;;;;;5086107;28;20040;-67
2021/01/08 10:08:17;;;;;;;;;;;3.20;80.80;;;;;;5085540;28;20496;-67
2021/01/08 10:10:42;;;;;;;47.55;25.10;;;3.20;81.40;;;;;;5085971;28;19908;-67
2021/01/08 10:13:21;;;;;;;;;;;3.10;81.10;;;;;;5086512;28;20458;-67
2021/01/08 10:15:49;;;;;;;28.73;16.90;;;3.10;81.00;;;;;;5071445;28;20265;-67
2021/01/08 10:18:16;;;;;;;29.52;16.52;;;3.10;80.60;;;;;;5089195;28;20024;-67
2021/01/08 10:20:46;;;;;;;25.38;14.25;;;3.10;80.20;;;;;;5088821;28;20032;-69
2021/01/08 10:23:14;;;;;;;28.88;14.20;;;3.10;80.10;;;;;;5089161;28;20035;-66
2021/01/08 10:25:40;;;;;;;19.58;11.68;;;3.10;79.80;;;;;;5089642;28;20112;-66
2021/01/08 10:28:15;;;;;;;22.63;11.13;;;3.20;79.50;;;;;;5088821;28;20044;-67
2021/01/08 10:30:42;;;;;;;18.13;10.75;;;3.20;78.90;;;;;;5089355;28;20484;-66
2021/01/08 10:33:09;;;;;;;17.85;10.25;;;3.20;78.40;;;;;;5089157;28;20039;-66
2021/01/08 10:35:35;;;;;;;17.65;10.48;;;3.20;78.50;;;;;;5070911;28;20419;-66
2021/01/08 10:38:01;;;;;;;19.77;12.05;;;3.30;78.60;;;;;;5088768;28;20020;-67
2021/01/08 10:40:27;;;;;;;;;;;3.30;78.90;;;;;;5089685;28;20396;-65
2021/01/08 10:42:53;;;;;;;18.50;10.57;;;3.30;79.30;;;;;;5089072;28;20441;-66
2021/01/08 10:45:19;;;;;;;27.30;13.43;;;3.30;79.50;;;;;;5089065;28;20569;-67
2021/01/08 10:47:45;;;;;;;;;;;3.40;80.00;;;;;;5089434;28;20032;-67
2021/01/08 10:50:11;;;;;;;29.40;14.73;;;3.40;80.20;;;;;;5089146;28;19965;-66
2021/01/08 10:52:37;;;;;;;24.17;12.55;;;3.40;80.40;;;;;;5088705;28;20116;-66
2021/01/08 10:55:04;;;;;;;;;;;3.40;80.50;;;;;;5070786;28;20031;-66
2021/01/08 10:57:30;;;;;;;25.60;16.20;;;3.40;80.00;;;;;;5088803;28;19961;-69
2021/01/08 10:59:55;;;;;;;;;;;3.40;80.10;;;;;;5089569;28;20028;-66
2021/01/08 11:02:21;;;;;;;22.17;14.15;;;3.40;79.80;;;;;;5088547;28;19915;-66
2021/01/08 11:04:46;;;;;;;20.52;13.60;;;3.40;80.20;;;;;;5089022;28;20032;-66
2021/01/08 11:07:12;;;;;;;;;;;3.40;79.40;;;;;;5088629;28;20039;-67
2021/01/08 11:09:37;;;;;;;21.30;12.40;;;3.30;79.40;;;;;;5088506;28;19915;-68
2021/01/08 11:12:03;;;;;;;;;;;3.40;79.40;;;;;;5070934;28;20036;-68
2021/01/08 11:14:29;;;;;;;22.85;12.60;;;3.40;77.70;;;;;;5087158;28;20363;-69
2021/01/08 11:16:55;;;;;;;;;;;3.40;77.50;;;;;;5070616;28;20024;-67
2021/01/08 11:19:20;;;;;;;22.05;13.35;;;3.40;77.40;;;;;;5088443;28;19958;-68
2021/01/08 11:21:46;;;;;;;;;;;3.30;77.70;;;;;;5088870;28;20473;-67
2021/01/08 11:24:12;;;;;;;29.17;16.45;;;3.40;77.10;;;;;;5087692;28;19904;-67
2021/01/08 11:26:37;;;;;;;;;;;3.50;76.90;;;;;;5088355;28;20028;-67
2021/01/08 11:29:03;;;;;;;24.20;14.65;;;3.60;76.30;;;;;;5088438;28;19947;-68
2021/01/08 11:31:29;;;;;;;;;;;3.70;75.20;;;;;;5088236;28;20447;-68
2021/01/08 11:33:55;;;;;;;29.33;15.73;;;3.70;74.00;;;;;;5088299;28;19908;-69
2021/01/08 11:36:20;;;;;;;;;;;3.70;74.90;;;;;;5088170;28;20062;-67
2021/01/08 11:38:46;;;;;;;42.47;21.30;;;3.80;74.30;;;;;;5087709;28;19947;-68
2021/01/08 11:41:11;;;;;;;;;;;3.80;74.70;;;;;;5088350;28;20559;-68
2021/01/08 11:43:38;;;;;;;49.38;21.05;;;3.90;74.70;;;;;;5087854;28;19962;-68
2021/01/08 11:46:03;;;;;;;48.70;22.08;;;4.00;75.00;;;;;;5088056;28;20131;-68
2021/01/08 11:48:29;;;;;;;;;;;4.10;73.80;;;;;;5088320;28;20154;-68
2021/01/08 11:50:54;;;;;;;39.67;18.13;;;4.10;73.60;;;;;;5087627;28;20300;-68
2021/01/08 11:53:20;;;;;;;;;;;4.10;73.60;;;;;;5087749;28;20034;-67
2021/01/08 11:55:45;;;;;;;24.67;12.10;;;4.10;73.10;;;;;;5087272;28;19923;-68
2021/01/08 11:58:11;;;;;;;18.73;10.25;;;4.20;73.80;;;;;;5087621;28;20032;-68
2021/01/08 12:00:36;;;;;;;;;;;4.20;73.20;;;;;;5088204;28;20039;-69
2021/01/08 12:03:02;;;;;;;15.15;8.63;;;4.20;73.20;;;;;;5087681;28;20372;-68
2021/01/08 12:05:28;;;;;;;;;;;4.20;73.60;;;;;;5087387;28;20546;-68
2021/01/08 12:07:53;;;;;;;15.20;8.55;;;4.20;72.90;;;;;;5087040;28;19908;-67
2021/01/08 12:10:19;;;;;;;13.32;7.90;;;4.20;73.20;;;;;;5087123;28;20035;-68
2021/01/08 12:12:47;;;;;;;;;;;4.30;73.50;;;;;;5087630;28;20062;-68
2021/01/08 12:15:14;;;;;;;10.88;7.00;;;4.30;73.30;;;;;;5087526;28;20276;-68
2021/01/08 12:17:40;;;;;;;12.88;7.68;;;4.20;73.80;;;;;;5087300;28;20016;-68
2021/01/08 12:20:06;;;;;;;;;;;4.30;73.90;;;;;;5087727;28;20042;-68
2021/01/08 12:22:33;;;;;;;14.45;8.85;;;4.30;73.80;;;;;;5086544;28;20303;-68
2021/01/08 12:24:58;;;;;;;14.48;8.90;;;4.30;73.40;;;;;;5069089;28;20035;-68
2021/01/08 12:27:25;;;;;;;;;;;4.20;73.50;;;;;;5086915;28;20396;-68
2021/01/08 12:29:51;;;;;;;18.97;10.77;;;4.20;72.50;;;;;;5087225;28;20018;-68
2021/01/08 12:32:16;;;;;;;;;;;4.20;72.70;;;;;;5087246;28;20535;-69
2021/01/08 12:34:42;;;;;;;15.63;9.30;;;4.20;73.00;;;;;;5086974;28;19912;-68
2021/01/08 12:37:07;;;;;;;40.08;22.10;;;4.20;73.00;;;;;;5086082;28;20036;-68
2021/01/08 12:39:34;;;;;;;;;;;4.20;73.00;;;;;;5087300;28;20051;-68
2021/01/08 12:42:01;;;;;;;19.45;11.95;;;4.20;72.90;;;;;;5086863;28;19947;-68
2021/01/08 12:44:26;;;;;;;18.38;11.32;;;4.20;73.80;;;;;;5086969;28;20038;-68
2021/01/08 12:46:56;;;;;;;;;;;4.20;74.20;;;;;;5069025;28;20028;-68
2021/01/08 12:49:21;;;;;;;17.77;9.82;;;4.10;74.60;;;;;;5086411;28;19904;-68
2021/01/08 12:51:49;;;;;;;;;;;4.10;74.90;;;;;;5086956;28;20032;-68
2021/01/08 12:54:15;;;;;;;;;;;4.00;75.30;;;;;;5086847;28;19999;-69
2021/01/08 12:56:40;;;;;;;25.25;14.35;;;3.90;75.60;;;;;;5086677;28;19912;-68
2021/01/08 12:59:06;;;;;;;;;;;3.90;75.80;;;;;;5086956;28;20101;-69
2021/01/08 13:01:31;;;;;;;26.50;12.30;;;3.80;76.10;;;;;;5086536;28;20329;-68
2021/01/08 13:03:57;;;;;;;;;;;3.80;76.30;;;;;;5087056;28;20095;-68
2021/01/08 13:06:27;;;;;;;20.60;12.63;;;3.70;76.70;;;;;;5085807;28;19986;-68
2021/01/08 13:08:54;;;;;;;20.73;12.65;;;3.70;77.20;;;;;;5068374;28;20085;-68
2021/01/08 13:11:20;;;;;;;20.55;12.95;;;3.70;77.50;;;;;;5086107;28;20036;-68